Time;durP1;ratioP1;P1;durP2;ratioP2;P2;SDS_P1;SDS_P2;PMS_P1;PMS_P2;Temp;Humidity;BMP_temperature;BMP_pressure;BME280_temperature;BME280_humidity;BME280_pressure;Samples;Min_cycle;Max_cycle;Signal;HPM_P1;HPM_P2
2022/02/12 00:00:55;;;;;;;18.43;8.40;;;;;;;-3.41;100.00;103166.41;2027058;29;20068;-64
2022/02/12 00:01:55;;;;;;;15.68;9.75;;;;;;;-3.41;100.00;103163.84;2027151;29;20032;-65
2022/02/12 00:02:55;;;;;;;18.83;9.53;;;;;;;-3.43;100.00;103167.97;2026989;29;20033;-64
2022/02/12 00:03:55;;;;;;;16.07;9.00;;;;;;;-3.44;100.00;103173.88;2027089;29;20033;-64
2022/02/12 00:04:56;;;;;;;18.40;10.13;;;;;;;-3.44;100.00;103168.78;2027100;29;20060;-63
2022/02/12 00:05:56;;;;;;;12.73;8.33;;;;;;;-3.45;100.00;103171.25;2027056;29;20032;-63
2022/02/12 00:06:57;;;;;;;15.68;8.35;;;;;;;-3.44;100.00;103168.78;2027147;29;20076;-64
2022/02/12 00:07:58;;;;;;;19.17;9.27;;;;;;;-3.42;100.00;103167.16;2027164;29;20028;-64
2022/02/12 00:08:58;;;;;;;19.23;10.18;;;;;;;-3.43;100.00;103164.53;2027022;29;20549;-64
2022/02/12 00:09:58;;;;;;;21.37;10.77;;;;;;;-3.44;100.00;103162.78;2027063;29;20160;-63
2022/02/12 00:10:59;;;;;;;15.27;8.98;;;;;;;-3.44;100.00;103162.78;2027123;29;20024;-63
2022/02/12 00:11:59;;;;;;;17.33;9.50;;;;;;;-3.43;100.00;103160.31;2027145;29;20032;-63
2022/02/12 00:13:00;;;;;;;14.23;9.80;;;;;;;-3.42;100.00;103161.22;2027200;29;20474;-63
2022/02/12 00:14:00;;;;;;;14.93;10.23;;;;;;;-3.41;100.00;103158.75;2026993;29;20067;-63
2022/02/12 00:15:01;;;;;;;16.10;10.47;;;;;;;-3.41;100.00;103163.84;2026962;29;20031;-64
2022/02/12 00:16:01;;;;;;;17.50;9.90;;;;;;;-3.44;100.00;103163.69;2026889;29;20093;-63
2022/02/12 00:17:02;;;;;;;18.03;10.37;;;;;;;-3.45;100.00;103156.81;2026943;29;20091;-63
2022/02/12 00:18:03;;;;;;;15.57;10.27;;;;;;;-3.41;100.00;103158.75;2027127;29;20024;-63
2022/02/12 00:19:03;;;;;;;;;;;;;;;-3.40;100.00;103160.50;2034494;29;20115;-63
2022/02/12 00:20:05;;;;;;;19.08;9.15;;;;;;;-3.42;100.00;103156.97;2026424;29;19919;-64
2022/02/12 00:21:06;;;;;;;15.82;10.50;;;;;;;-3.41;100.00;103153.63;2026422;29;20032;-64
2022/02/12 00:22:07;;;;;;;18.93;10.97;;;;;;;-3.41;100.00;103155.28;2027011;29;20035;-64
2022/02/12 00:23:07;;;;;;;13.02;8.23;;;;;;;-3.43;100.00;103155.22;2027108;29;20116;-63
2022/02/12 00:24:07;;;;;;;13.73;8.10;;;;;;;-3.43;100.00;103155.22;2026507;29;20036;-64
2022/02/12 00:25:09;;;;;;;17.43;9.57;;;;;;;-3.41;100.00;103147.63;2026348;29;20107;-64
2022/02/12 00:26:10;;;;;;;16.25;10.40;;;;;;;-3.40;100.00;103144.28;2026897;29;20028;-64
2022/02/12 00:27:10;;;;;;;20.35;11.10;;;;;;;-3.42;100.00;103141.63;2026965;29;20077;-64
2022/02/12 00:28:10;;;;;;;15.65;9.57;;;;;;;-3.43;100.00;103145.00;2026929;29;20112;-64
2022/02/12 00:29:11;;;;;;;19.17;11.07;;;;;;;-3.44;100.00;103142.34;2026924;29;20406;-64
2022/02/12 00:30:11;;;;;;;17.10;10.43;;;;;;;-3.50;100.00;103145.47;2027062;29;20500;-64
2022/02/12 00:31:11;;;;;;;14.23;9.87;;;;;;;-3.52;100.00;103141.97;2027022;29;20060;-64
2022/02/12 00:32:11;;;;;;;15.03;9.27;;;;;;;-3.55;100.00;103145.25;2026811;29;20501;-63
2022/02/12 00:33:12;;;;;;;17.30;10.50;;;;;;;-3.56;100.00;103143.47;2034216;29;20107;-63
2022/02/12 00:34:12;;;;;;;13.33;10.20;;;;;;;-3.58;100.00;103144.19;2034081;29;20027;-63
2022/02/12 00:35:12;;;;;;;16.53;10.03;;;;;;;-3.57;100.00;103143.38;2026211;29;20506;-63
2022/02/12 00:36:13;;;;;;;16.40;10.27;;;;;;;-3.57;100.00;103143.38;2026422;29;20313;-63
2022/02/12 00:37:13;;;;;;;18.57;10.40;;;;;;;-3.55;100.00;103140.13;2026883;29;20517;-63
2022/02/12 00:38:13;;;;;;;16.03;9.37;;;;;;;-3.53;100.00;103132.53;2026310;29;20043;-64
2022/02/12 00:39:14;;;;;;;16.13;9.57;;;;;;;-3.53;100.00;103124.88;2026359;29;20116;-63
2022/02/12 00:40:14;;;;;;;15.27;9.13;;;;;;;-3.51;100.00;103133.50;2027002;29;20044;-63
2022/02/12 00:41:14;;;;;;;18.73;10.30;;;;;;;-3.50;100.00;103128.47;2026837;29;20037;-64
2022/02/12 00:42:14;;;;;;;18.77;9.20;;;;;;;-3.45;100.00;103131.28;2026836;29;20040;-63
2022/02/12 00:43:15;;;;;;;15.60;9.00;;;;;;;-3.40;100.00;103132.41;2026748;29;20059;-64
2022/02/12 00:44:15;;;;;;;16.63;9.67;;;;;;;-3.40;100.00;103126.41;2025921;29;20053;-63
2022/02/12 00:45:15;;;;;;;17.23;9.27;;;;;;;-3.44;100.00;103138.13;2026225;29;20037;-63
2022/02/12 00:46:15;;;;;;;13.07;9.40;;;;;;;-3.46;100.00;103132.06;2026876;29;20032;-62
2022/02/12 00:47:16;;;;;;;16.20;10.20;;;;;;;-3.48;100.00;103136.22;2026408;29;20398;-63
2022/02/12 00:48:16;;;;;;;18.73;10.37;;;;;;;-3.51;100.00;103133.50;2026541;29;20108;-63
2022/02/12 00:49:16;;;;;;;13.27;8.50;;;;;;;-3.52;100.00;103129.19;2026056;29;20619;-63
2022/02/12 00:50:17;;;;;;;19.23;9.70;;;;;;;-3.51;100.00;103126.72;2026185;29;20028;-63
2022/02/12 00:51:17;;;;;;;19.10;9.80;;;;;;;-3.51;100.00;103125.84;2026801;29;20064;-63
2022/02/12 00:52:17;;;;;;;17.57;10.00;;;;;;;-3.54;100.00;103124.00;2026680;29;20096;-64
2022/02/12 00:53:17;;;;;;;15.20;8.10;;;;;;;-3.54;100.00;103125.66;2026539;29;20033;-63
2022/02/12 00:54:18;;;;;;;11.73;7.73;;;;;;;-3.52;100.00;103124.09;2026814;29;20024;-64
2022/02/12 00:55:19;;;;;;;12.98;8.50;;;;;;;-3.50;100.00;103132.69;2026682;29;20477;-63
2022/02/12 00:56:19;;;;;;;15.83;10.33;;;;;;;-3.48;100.00;103126.00;2026677;29;20112;-63
2022/02/12 00:57:19;;;;;;;15.40;9.13;;;;;;;-3.47;100.00;103127.75;2026049;29;20526;-63
2022/02/12 00:58:20;;;;;;;17.43;9.63;;;;;;;-3.52;100.00;103119.00;2026072;29;20032;-63
2022/02/12 00:59:20;;;;;;;14.23;8.37;;;;;;;-3.56;100.00;103117.94;2026536;29;20475;-63
2022/02/12 01:00:21;;;;;;;16.30;8.43;;;;;;;-3.59;100.00;103117.78;2025967;29;20289;-63
2022/02/12 01:01:21;;;;;;;17.45;9.50;;;;;;;-3.63;100.00;103113.28;2026087;29;20037;-63
2022/02/12 01:02:21;;;;;;;13.30;9.17;;;;;;;-3.64;100.00;103121.75;2026558;29;20555;-63
2022/02/12 01:03:21;;;;;;;13.17;8.80;;;;;;;-3.66;100.00;103114.00;2026680;29;20064;-64
2022/02/12 01:04:22;;;;;;;14.63;9.13;;;;;;;-3.63;100.00;103111.63;2033696;29;20540;-64
2022/02/12 01:05:22;;;;;;;14.48;9.15;;;;;;;-3.60;100.00;103108.34;2033928;29;20394;-62
2022/02/12 01:06:23;;;;;;;14.27;9.40;;;;;;;-3.56;100.00;103111.97;2026719;29;20035;-62
2022/02/12 01:07:24;;;;;;;13.20;8.32;;;;;;;-3.51;100.00;103110.53;2026675;29;20591;-63
2022/02/12 01:08:24;;;;;;;19.10;9.73;;;;;;;-3.50;100.00;103109.72;2026527;29;20213;-63
2022/02/12 01:09:24;;;;;;;13.77;9.27;;;;;;;-3.56;100.00;103106.84;2026555;29;20234;-62
2022/02/12 01:10:25;;;;;;;12.73;8.13;;;;;;;-3.60;100.00;103107.50;2026602;29;20040;-63
2022/02/12 01:11:25;;;;;;;14.60;7.00;;;;;;;-3.60;100.00;103100.69;2026438;29;20112;-63
2022/02/12 01:12:26;;;;;;;15.30;8.80;;;;;;;-3.61;100.00;103104.06;2026593;29;20068;-63
2022/02/12 01:13:26;;;;;;;13.60;7.90;;;;;;;-3.59;100.00;103101.59;2026553;29;20031;-64
2022/02/12 01:14:26;;;;;;;13.80;7.37;;;;;;;-3.56;100.00;103101.75;2026581;29;20059;-64
2022/02/12 01:15:27;;;;;;;14.87;7.87;;;;;;;-3.58;100.00;103098.22;2026453;29;20478;-63
2022/02/12 01:16:27;;;;;;;18.05;9.30;;;;;;;-3.59;100.00;103107.56;2026386;29;20367;-63
2022/02/12 01:17:29;;;;;;;13.57;7.40;;;;;;;-3.62;100.00;103103.16;2026524;29;20028;-63
2022/02/12 01:18:30;;;;;;;14.55;9.43;;;;;;;-3.63;100.00;103096.31;2026458;29;20036;-62
2022/02/12 01:19:30;;;;;;;12.97;7.53;;;;;;;-3.63;100.00;103100.53;2026603;29;20033;-63
2022/02/12 01:20:30;;;;;;;16.47;8.53;;;;;;;-3.64;100.00;103097.13;2026673;29;20363;-63
2022/02/12 01:21:30;;;;;;;13.37;7.57;;;;;;;-3.63;100.00;103098.88;2033607;29;20024;-63
2022/02/12 01:22:31;;;;;;;19.30;8.13;;;;;;;-3.60;100.00;103099.84;2033669;29;20048;-63
2022/02/12 01:23:31;;;;;;;13.97;8.20;;;;;;;-3.62;100.00;103107.41;2026538;29;20103;-63
2022/02/12 01:24:31;;;;;;;12.43;8.00;;;;;;;-3.60;100.00;103104.94;2026649;29;20025;-63
2022/02/12 01:25:32;;;;;;;14.10;8.37;;;;;;;-3.64;100.00;103103.88;2026447;29;20028;-63
2022/02/12 01:26:33;;;;;;;12.40;7.68;;;;;;;-3.65;100.00;103097.91;2026479;29;20033;-63
2022/02/12 01:27:33;;;;;;;10.87;7.07;;;;;;;-3.63;100.00;103097.97;2026431;29;20024;-62
2022/02/12 01:28:33;;;;;;;10.60;7.43;;;;;;;-3.63;100.00;103100.53;2033687;29;20417;-63
2022/02/12 01:29:33;;;;;;;15.17;7.93;;;;;;;-3.63;100.00;103100.53;2033602;29;20059;-63
2022/02/12 01:30:34;;;;;;;14.93;7.40;;;;;;;-3.66;100.00;103093.59;2026421;29;20085;-63
2022/02/12 01:31:34;;;;;;;13.07;7.77;;;;;;;-3.68;100.00;103092.66;2025715;29;20036;-63
2022/02/12 01:32:35;;;;;;;13.47;7.03;;;;;;;-3.68;100.00;103100.31;2025937;29;20590;-63
2022/02/12 01:33:36;;;;;;;10.57;6.40;;;;;;;-3.66;100.00;103093.59;2026382;29;20066;-63
2022/02/12 01:34:37;;;;;;;13.30;7.67;;;;;;;-3.63;100.00;103090.31;2026257;29;20020;-62
2022/02/12 01:35:37;;;;;;;11.73;7.15;;;;;;;-3.63;100.00;103093.75;2026407;29;20021;-62
2022/02/12 01:36:38;;;;;;;14.93;7.83;;;;;;;-3.64;100.00;103094.56;2026359;29;20447;-62
2022/02/12 01:37:39;;;;;;;15.83;7.83;;;;;;;-3.66;100.00;103093.59;2025749;29;20076;-63
2022/02/12 01:38:39;;;;;;;14.18;7.70;;;;;;;-3.69;100.00;103088.34;2025786;29;20025;-63
2022/02/12 01:39:40;;;;;;;15.97;8.63;;;;;;;-3.68;100.00;103094.31;2026375;29;20020;-63
2022/02/12 01:40:40;;;;;;;16.73;7.20;;;;;;;-3.68;100.00;103094.31;2026313;29;20027;-63
2022/02/12 01:41:40;;;;;;;13.38;6.57;;;;;;;-3.68;100.00;103092.66;2026306;29;20099;-63
2022/02/12 01:42:41;;;;;;;15.00;8.53;;;;;;;-3.71;100.00;103089.91;2026338;29;20052;-63
2022/02/12 01:43:41;;;;;;;12.10;7.00;;;;;;;-3.73;100.00;103088.94;2026314;29;20048;-64
2022/02/12 01:44:42;;;;;;;14.70;7.05;;;;;;;-3.76;100.00;103093.91;2026422;29;20048;-63
2022/02/12 01:45:42;;;;;;;11.82;7.97;;;;;;;-3.78;100.00;103082.72;2026416;29;20032;-63
2022/02/12 01:46:43;;;;;;;12.57;7.07;;;;;;;-3.74;100.00;103087.19;2026307;29;20056;-63
2022/02/12 01:47:43;;;;;;;13.90;7.43;;;;;;;-3.75;100.00;103085.44;2025640;29;20483;-63
2022/02/12 01:48:44;;;;;;;13.77;6.20;;;;;;;-3.74;100.00;103087.19;2025708;29;20028;-63
2022/02/12 01:49:44;;;;;;;12.25;6.55;;;;;;;-3.73;100.00;103088.94;2026389;29;20028;-63
2022/02/12 01:50:48;;;;;;;15.43;6.30;;;;;;;-3.72;100.00;103084.72;2026242;29;20028;-63
2022/02/12 01:51:48;;;;;;;15.02;8.20;;;;;;;-3.75;100.00;103082.91;2026241;29;20080;-63
2022/02/12 01:52:49;;;;;;;13.87;7.00;;;;;;;-3.77;100.00;103084.47;2025696;29;20037;-61
2022/02/12 01:53:49;;;;;;;13.40;5.88;;;;;;;-3.78;100.00;103081.06;2025750;29;20401;-63
2022/02/12 01:54:50;;;;;;;12.80;5.80;;;;;;;-3.72;100.00;103082.19;2026334;29;20120;-63
2022/02/12 01:55:50;;;;;;;16.40;6.17;;;;;;;-3.63;100.00;103085.22;2026318;29;20080;-63
2022/02/12 01:56:51;;;;;;;10.23;5.73;;;;;;;-3.57;100.00;103080.44;2026454;29;20103;-63
2022/02/12 01:57:51;;;;;;;15.38;6.70;;;;;;;-3.49;100.00;103083.41;2033500;29;20158;-61
2022/02/12 01:58:51;;;;;;;11.93;6.33;;;;;;;-3.47;100.00;103080.91;2033414;29;20431;-63
2022/02/12 01:59:52;;;;;;;11.27;5.70;;;;;;;-3.50;100.00;103072.31;2025797;29;20032;-62
2022/02/12 02:00:52;;;;;;;11.97;6.67;;;;;;;-3.52;100.00;103083.25;2026185;29;20623;-62
2022/02/12 02:01:53;;;;;;;12.27;7.03;;;;;;;-3.58;100.00;103072.69;2025435;29;20072;-62
2022/02/12 02:02:55;;;;;;;10.45;6.75;;;;;;;-3.64;100.00;103073.25;2025285;29;20348;-63
2022/02/12 02:03:56;;;;;;;11.18;6.60;;;;;;;-3.66;100.00;103069.75;2025953;29;20043;-63
2022/02/12 02:04:57;;;;;;;12.43;6.30;;;;;;;-3.67;100.00;103079.06;2026041;29;20029;-63
2022/02/12 02:05:59;;;;;;;13.30;7.10;;;;;;;-3.70;100.00;103078.91;2026117;29;20056;-64
2022/02/12 02:07:00;;;;;;;13.80;6.88;;;;;;;-3.70;100.00;103081.47;2026070;29;20035;-63
2022/02/12 02:08:01;;;;;;;11.57;6.65;;;;;;;-3.71;100.00;103074.59;2026008;29;20032;-62
2022/02/12 02:09:03;;;;;;;19.33;7.97;;;;;;;-3.72;100.00;103060.09;2025316;29;20088;-63
2022/02/12 02:10:05;;;;;;;14.50;7.68;;;;;;;-3.72;100.00;103067.75;2025378;29;20036;-63
2022/02/12 02:11:05;;;;;;;14.13;7.47;;;;;;;-3.73;100.00;103068.53;2025937;29;20335;-63
2022/02/12 02:12:06;;;;;;;12.85;6.43;;;;;;;-3.76;100.00;103063.28;2025921;29;20072;-62
2022/02/12 02:13:06;;;;;;;14.13;6.72;;;;;;;-3.77;100.00;103066.63;2025982;29;20028;-63
2022/02/12 02:14:07;;;;;;;10.80;6.10;;;;;;;-3.79;100.00;103065.66;2026116;29;20028;-64
2022/02/12 02:15:09;;;;;;;8.45;5.60;;;;;;;-3.80;100.00;103058.81;2025842;29;20043;-62
2022/02/12 02:16:13;;;;;;;11.73;7.18;;;;;;;-3.77;100.00;103062.41;2025927;29;20051;-63
2022/02/12 02:17:14;;;;;;;9.77;6.15;;;;;;;-3.78;100.00;103062.31;2025277;29;20033;-62
2022/02/12 02:18:14;;;;;;;11.00;6.37;;;;;;;-3.81;100.00;103051.94;2025374;29;20028;-62
2022/02/12 02:19:14;;;;;;;11.63;6.43;;;;;;;-3.80;100.00;103061.38;2033043;29;20028;-62
2022/02/12 02:20:14;;;;;;;12.30;6.73;;;;;;;-3.83;100.00;103062.06;2033039;29;20067;-62
2022/02/12 02:21:17;;;;;;;14.47;6.53;;;;;;;-3.86;100.00;103061.91;2025376;29;20119;-63
2022/02/12 02:22:24;;;;;;;10.30;5.45;;;;;;;-3.85;100.00;103063.66;2025217;29;20029;-62
2022/02/12 02:23:24;;;;;;;10.38;5.75;;;;;;;-3.83;100.00;103056.09;2025410;29;20024;-63
2022/02/12 02:24:24;;;;;;;12.87;6.53;;;;;;;-3.82;100.00;103057.84;2025848;29;20024;-63
2022/02/12 02:25:25;;;;;;;9.40;5.73;;;;;;;-3.80;100.00;103048.59;2025917;29;20434;-63
2022/02/12 02:26:25;;;;;;;11.25;6.97;;;;;;;-3.81;100.00;103054.50;2025876;29;20059;-62
2022/02/12 02:27:28;;;;;;;14.80;6.10;;;;;;;-3.82;100.00;103047.63;2025878;29;20036;-62
2022/02/12 02:28:28;;;;;;;12.43;7.18;;;;;;;-3.82;100.00;103047.63;2025833;29;20028;-63
2022/02/12 02:29:28;;;;;;;12.33;6.63;;;;;;;-3.83;100.00;103048.44;2025858;29;20042;-63
2022/02/12 02:30:30;;;;;;;10.33;5.70;;;;;;;-3.79;100.00;103048.69;2025864;29;20036;-63
2022/02/12 02:31:30;;;;;;;15.93;7.13;;;;;;;-3.76;100.00;103047.97;2025922;29;20029;-63
2022/02/12 02:32:30;;;;;;;13.10;5.93;;;;;;;-3.71;100.00;103053.31;2033066;29;20027;-63
2022/02/12 02:33:31;;;;;;;13.20;6.40;;;;;;;-3.67;100.00;103048.44;2033091;29;20490;-63
2022/02/12 02:34:31;;;;;;;10.20;6.40;;;;;;;-3.71;100.00;103046.53;2025952;29;20032;-63
2022/02/12 02:35:31;;;;;;;9.57;6.00;;;;;;;-3.74;100.00;103048.91;2025847;29;20142;-63
2022/02/12 02:36:32;;;;;;;9.65;5.78;;;;;;;-3.77;100.00;103047.09;2025812;29;20055;-63
2022/02/12 02:37:32;;;;;;;11.83;6.30;;;;;;;-3.81;100.00;103049.38;2025888;29;20398;-62
2022/02/12 02:38:33;;;;;;;8.90;5.50;;;;;;;-3.80;100.00;103038.41;2025883;29;20093;-63
2022/02/12 02:39:33;;;;;;;15.13;6.95;;;;;;;-3.78;100.00;103041.91;2025818;29;20036;-62
2022/02/12 02:40:34;;;;;;;9.40;5.30;;;;;;;-3.77;100.00;103041.09;2025874;29;20052;-64
2022/02/12 02:41:34;;;;;;;11.50;5.40;;;;;;;-3.75;100.00;103039.50;2025863;29;20020;-63
2022/02/12 02:42:34;;;;;;;11.90;6.23;;;;;;;-3.78;100.00;103037.69;2025889;29;20030;-63
2022/02/12 02:43:35;;;;;;;9.33;6.17;;;;;;;-3.80;100.00;103038.41;2025772;29;20056;-63
2022/02/12 02:44:36;;;;;;;14.48;5.72;;;;;;;-3.81;100.00;103039.19;2025171;29;20035;-63
2022/02/12 02:45:36;;;;;;;10.20;6.47;;;;;;;-3.80;100.00;103044.38;2025318;29;20043;-63
2022/02/12 02:46:37;;;;;;;12.20;6.70;;;;;;;-3.80;100.00;103035.84;2025916;29;20016;-63
2022/02/12 02:47:43;;;;;;;11.40;6.27;;;;;;;-3.78;100.00;103035.13;2025196;29;20165;-63
2022/02/12 02:48:44;;;;;;;10.00;5.57;;;;;;;-3.76;100.00;103035.22;2025234;29;20056;-63
2022/02/12 02:49:44;;;;;;;12.55;6.43;;;;;;;-3.70;100.00;103032.97;2025836;29;20028;-63
2022/02/12 02:56:02;;;;;;;11.95;6.03;;;;;;;-3.70;100.00;103032.97;2025994;29;20098;-62
2022/02/12 02:57:03;;;;;;;11.93;5.88;;;;;;;-3.73;100.00;103027.69;2025054;29;20398;-63
2022/02/12 02:58:03;;;;;;;12.77;6.60;;;;;;;-3.74;100.00;103025.94;2025259;29;20107;-63
2022/02/12 02:59:03;;;;;;;12.63;4.57;;;;;;;-3.76;100.00;103022.44;2025874;29;20032;-63
2022/02/12 03:00:04;;;;;;;8.67;4.80;;;;;;;-3.78;100.00;103026.59;2025772;29;20501;-62
2022/02/12 03:01:07;;;;;;;13.85;5.70;;;;;;;-3.78;100.00;103024.03;2025862;29;20043;-63
2022/02/12 03:02:07;;;;;;;9.27;5.53;;;;;;;-3.80;100.00;103023.94;2025869;29;20089;-63
2022/02/12 03:03:08;;;;;;;6.70;5.10;;;;;;;-3.80;100.00;103015.44;2025900;29;20036;-62
2022/02/12 03:04:08;;;;;;;6.50;4.27;;;;;;;-3.72;100.00;103014.16;2025797;29;20036;-63
2022/02/12 03:05:08;;;;;;;15.63;6.67;;;;;;;-3.64;100.00;103012.88;2025888;29;20042;-62
2022/02/12 03:06:10;;;;;;;10.97;5.43;;;;;;;-3.62;100.00;103006.16;2025864;29;20044;-62
2022/02/12 03:07:11;;;;;;;11.60;5.43;;;;;;;-3.60;100.00;103013.03;2025830;29;20400;-62
2022/02/12 03:08:11;;;;;;;12.77;5.93;;;;;;;-3.62;100.00;103003.59;2025834;29;20029;-62
2022/02/12 03:09:11;;;;;;;11.40;5.83;;;;;;;-3.59;100.00;103007.13;2025845;29;20024;-62
2022/02/12 03:10:12;;;;;;;13.70;6.00;;;;;;;-3.58;100.00;103004.66;2025835;29;20035;-62
2022/02/12 03:11:14;;;;;;;15.17;5.93;;;;;;;-3.56;100.00;103010.72;2027035;29;20025;-63
2022/02/12 03:12:14;;;;;;;14.88;5.68;;;;;;;-3.58;100.00;103003.78;2027234;29;20035;-61
2022/02/12 03:13:14;;;;;;;9.40;5.80;;;;;;;-3.61;100.00;103007.06;2027294;29;20048;-63
2022/02/12 03:14:15;;;;;;;9.70;6.57;;;;;;;-3.57;100.00;103008.06;2027314;29;20040;-62
2022/02/12 03:15:15;;;;;;;11.07;5.40;;;;;;;-3.48;100.00;102998.34;2027289;29;20072;-63
2022/02/12 03:16:16;;;;;;;14.50;5.53;;;;;;;-3.39;100.00;102995.38;2027232;29;20028;-62
2022/02/12 03:17:16;;;;;;;11.25;5.68;;;;;;;-3.33;100.00;102997.34;2026649;29;20024;-62
2022/02/12 03:18:16;;;;;;;14.63;6.10;;;;;;;-3.23;100.00;102997.03;2026695;29;20044;-62
2022/02/12 03:19:16;;;;;;;10.13;5.50;;;;;;;-3.22;100.00;102996.22;2027301;29;20060;-62
2022/02/12 03:20:17;;;;;;;13.03;5.40;;;;;;;-3.21;100.00;102992.88;2027258;29;20036;-62
2022/02/12 03:21:18;;;;;;;9.80;6.10;;;;;;;-3.20;100.00;102994.63;2027237;29;20032;-62
2022/02/12 03:22:18;;;;;;;13.07;6.00;;;;;;;-3.05;100.00;102984.28;2027191;29;20024;-61
2022/02/12 03:23:18;;;;;;;14.37;5.80;;;;;;;-2.86;100.00;102980.94;2027250;29;20146;-62
2022/02/12 03:24:18;;;;;;;15.00;5.97;;;;;;;-2.80;100.00;102985.47;2027206;29;20038;-62
2022/02/12 03:25:19;;;;;;;15.17;6.30;;;;;;;-2.79;100.00;102981.22;2027198;29;20107;-62
2022/02/12 03:26:19;;;;;;;10.60;5.53;;;;;;;-2.84;100.00;102975.91;2034364;29;20036;-62
2022/02/12 03:27:19;;;;;;;11.80;5.90;;;;;;;-2.93;100.00;102976.34;2034424;29;20067;-62
2022/02/12 03:28:20;;;;;;;16.17;7.13;;;;;;;-3.01;100.00;102985.31;2027153;29;20035;-62
2022/02/12 03:29:22;;;;;;;14.77;6.40;;;;;;;-3.01;100.00;102969.97;2027215;29;20028;-61
2022/02/12 03:30:22;;;;;;;14.18;6.18;;;;;;;-2.99;100.00;102973.47;2027164;29;20040;-61
2022/02/12 03:31:22;;;;;;;9.97;5.33;;;;;;;-2.99;100.00;102968.38;2027225;29;20111;-63
2022/02/12 03:32:23;;;;;;;11.93;6.60;;;;;;;-2.99;100.00;102974.38;2027211;29;20039;-62
2022/02/12 03:33:23;;;;;;;12.60;5.53;;;;;;;-3.01;100.00;102962.31;2027161;29;20047;-62
2022/02/12 03:34:23;;;;;;;12.20;5.87;;;;;;;-3.00;100.00;102966.63;2027181;29;20063;-62
2022/02/12 03:35:26;;;;;;;11.87;5.47;;;;;;;-2.96;100.00;102965.97;2027103;29;20296;-62
2022/02/12 03:36:27;;;;;;;12.30;6.35;;;;;;;-2.92;100.00;102967.88;2027137;29;20041;-62
2022/02/12 03:37:28;;;;;;;12.13;5.77;;;;;;;-2.87;100.00;102960.44;2026389;29;20024;-61
2022/02/12 03:38:35;;;;;;;10.30;6.05;;;;;;;-2.86;100.00;102973.28;2026553;29;20099;-61
2022/02/12 03:39:35;;;;;;;14.00;5.88;;;;;;;-2.79;100.00;102971.00;2027035;29;20530;-62
2022/02/12 03:40:39;;;;;;;13.93;5.73;;;;;;;-2.79;100.00;102965.88;2034252;29;20032;-62
2022/02/12 03:41:39;;;;;;;13.30;5.97;;;;;;;-2.72;100.00;102967.94;2033995;29;20020;-62
2022/02/12 03:42:39;;;;;;;11.63;5.60;;;;;;;-2.65;100.00;102969.09;2027076;29;20021;-62
2022/02/12 03:43:40;;;;;;;15.23;6.07;;;;;;;-2.59;100.00;102965.13;2026958;29;20055;-61
2022/02/12 03:44:40;;;;;;;16.60;6.20;;;;;;;-2.47;100.00;102969.97;2027111;29;20029;-61
2022/02/12 03:45:42;;;;;;;16.00;6.23;;;;;;;-2.49;100.00;102974.09;2027130;29;20024;-61
2022/02/12 03:46:42;;;;;;;;;;;;;;;-2.53;100.00;102971.38;2027480;29;20021;-61
2022/02/12 03:47:42;;;;;;;9.57;4.95;;;;;;;-2.60;100.00;102973.63;2027180;29;19963;-61
2022/02/12 03:48:42;;;;;;;11.10;5.33;;;;;;;-2.65;100.00;102964.88;2027028;29;20394;-61
2022/02/12 03:49:44;;;;;;;16.10;5.43;;;;;;;-2.69;100.00;102965.53;2027119;29;20033;-61
2022/02/12 03:50:44;;;;;;;10.20;4.82;;;;;;;-2.73;100.00;102966.19;2034215;29;20039;-62
2022/02/12 03:51:44;;;;;;;12.60;7.17;;;;;;;-2.76;100.00;102971.16;2034233;29;20478;-61
2022/02/12 03:52:44;;;;;;;14.27;5.57;;;;;;;-2.79;100.00;102965.88;2026370;29;20027;-61
2022/02/12 03:53:46;;;;;;;14.37;5.90;;;;;;;-2.80;100.00;102971.81;2026433;29;20032;-61
2022/02/12 03:54:46;;;;;;;;;;;;;;;-2.84;100.00;102975.91;2027430;29;20040;-62
2022/02/12 03:55:47;;;;;;;9.57;5.85;;;;;;;-2.91;100.00;102969.59;2026923;29;19915;-62
2022/02/12 03:56:47;;;;;;;13.45;5.30;;;;;;;-2.97;100.00;102977.84;2026998;29;20104;-62
2022/02/12 03:57:48;;;;;;;12.40;5.47;;;;;;;-2.97;100.00;102977.00;2027047;29;20078;-62
2022/02/12 03:58:48;;;;;;;7.85;4.75;;;;;;;-2.98;100.00;102980.34;2026356;29;20068;-62
2022/02/12 03:59:49;;;;;;;11.40;6.93;;;;;;;-3.00;100.00;102974.28;2026392;29;20025;-62
2022/02/12 04:00:49;;;;;;;14.33;7.00;;;;;;;-3.02;100.00;102974.22;2026977;29;20029;-62
2022/02/12 04:01:50;;;;;;;11.20;5.43;;;;;;;-3.06;100.00;102973.97;2026993;29;20467;-62
2022/02/12 04:02:50;;;;;;;8.90;5.17;;;;;;;-3.08;100.00;102967.94;2026944;29;20057;-61
2022/02/12 04:03:52;;;;;;;9.03;5.53;;;;;;;-3.07;100.00;102974.78;2026914;29;20553;-61
2022/02/12 04:04:52;;;;;;;13.93;5.65;;;;;;;-3.06;100.00;102966.31;2026935;29;20037;-61
2022/02/12 04:05:53;;;;;;;12.60;5.37;;;;;;;-3.04;100.00;102970.72;2026986;29;20494;-62
2022/02/12 04:06:53;;;;;;;10.93;5.87;;;;;;;-3.04;100.00;102962.16;2026920;29;20364;-62
2022/02/12 04:07:53;;;;;;;10.53;5.67;;;;;;;-3.08;100.00;102957.72;2026922;29;20506;-61
2022/02/12 04:08:53;;;;;;;10.47;4.83;;;;;;;-3.11;100.00;102954.19;2026873;29;20459;-62
2022/02/12 04:09:53;;;;;;;9.40;5.00;;;;;;;-3.15;100.00;102961.66;2026873;29;20028;-62
2022/02/12 04:10:54;;;;;;;10.77;4.77;;;;;;;-3.20;100.00;102963.97;2026848;29;20112;-62
2022/02/12 04:11:54;;;;;;;14.07;5.60;;;;;;;-3.14;100.00;102964.28;2026890;29;20105;-62
2022/02/12 04:12:55;;;;;;;17.53;6.37;;;;;;;-3.13;100.00;102960.91;2026871;29;20478;-62
2022/02/12 04:13:55;;;;;;;10.15;5.15;;;;;;;-3.15;100.00;102962.50;2026797;29;20439;-62
2022/02/12 04:14:56;;;;;;;10.57;4.93;;;;;;;-3.19;100.00;102963.16;2026800;29;20037;-62
2022/02/12 04:15:56;;;;;;;16.23;6.63;;;;;;;-3.23;100.00;102963.81;2025995;29;20100;-62
2022/02/12 04:16:56;;;;;;;8.90;5.43;;;;;;;-3.29;100.00;102968.63;2026228;29;20048;-61
2022/02/12 04:17:57;;;;;;;11.00;4.80;;;;;;;-3.32;100.00;102965.94;2026130;29;20037;-62
2022/02/12 04:18:57;;;;;;;15.40;5.30;;;;;;;-3.36;100.00;102962.31;2026247;29;20554;-63
2022/02/12 04:20:01;;;;;;;8.47;5.50;;;;;;;-3.41;100.00;102959.56;2026808;29;20039;-62
2022/02/12 04:21:01;;;;;;;7.90;4.95;;;;;;;-3.43;100.00;102956.03;2026786;29;20032;-62
2022/02/12 04:22:02;;;;;;;10.47;5.33;;;;;;;-3.44;100.00;102959.41;2026558;29;20040;-61
2022/02/12 04:23:02;;;;;;;7.57;4.75;;;;;;;-3.42;100.00;102954.38;2033439;29;20118;-62
2022/02/12 04:24:03;;;;;;;8.20;4.87;;;;;;;-3.43;100.00;102958.59;2034022;29;20084;-62
2022/02/12 04:25:07;;;;;;;12.88;5.82;;;;;;;-3.39;100.00;102957.09;2026682;29;20357;-62
2022/02/12 04:26:08;;;;;;;12.15;5.25;;;;;;;-3.38;100.00;102954.59;2026737;29;20514;-61
2022/02/12 04:27:08;;;;;;;;;;;;;;;-3.31;100.00;102954.91;2027140;29;20486;-62
2022/02/12 04:28:10;;;;;;;10.07;4.70;;;;;;;-3.24;100.00;102954.41;2026707;29;19911;-62
2022/02/12 04:29:11;;;;;;;8.98;5.88;;;;;;;-3.14;100.00;102951.50;2025972;29;20043;-61
2022/02/12 04:30:13;;;;;;;10.57;6.18;;;;;;;-3.12;100.00;102947.34;2026046;29;20053;-61
2022/02/12 04:31:13;;;;;;;15.18;5.93;;;;;;;-3.15;100.00;102952.28;2026634;29;20056;-62
2022/02/12 04:32:14;;;;;;;15.97;5.87;;;;;;;-3.13;100.00;102948.16;2033791;29;20415;-63
2022/02/12 04:33:14;;;;;;;12.53;6.23;;;;;;;-3.04;100.00;102951.94;2033838;29;20044;-62
2022/02/12 04:34:14;;;;;;;11.80;6.43;;;;;;;-2.94;100.00;102943.94;2026607;29;20115;-62
2022/02/12 04:35:15;;;;;;;9.70;5.73;;;;;;;-2.92;100.00;102941.41;2026513;29;20135;-62
2022/02/12 04:36:16;;;;;;;12.05;6.18;;;;;;;-2.87;100.00;102942.53;2026590;29;20036;-61
2022/02/12 04:37:17;;;;;;;11.30;6.17;;;;;;;-2.80;100.00;102936.03;2025882;29;20058;-62
2022/02/12 04:38:17;;;;;;;13.65;6.43;;;;;;;-2.77;100.00;102933.63;2026000;29;20343;-62
2022/02/12 04:39:18;;;;;;;16.63;7.50;;;;;;;-2.69;100.00;102931.41;2026570;29;20107;-62
2022/02/12 04:40:18;;;;;;;13.50;6.77;;;;;;;-2.72;100.00;102933.03;2026454;29;20060;-62
2022/02/12 04:41:18;;;;;;;10.83;5.57;;;;;;;-2.66;100.00;102937.56;2026556;29;20120;-62